createdAt,value
2022-12-19T00:01:35.404Z,12.65
2022-12-19T00:04:07.804Z,10.88
2022-12-19T00:06:43.402Z,10.65
2022-12-19T00:09:12.739Z,10.52
2022-12-19T00:11:40.907Z,12.55
2022-12-19T00:14:10.900Z,9.07
2022-12-19T00:16:38.690Z,7.63
2022-12-19T00:19:05.552Z,7.88
2022-12-19T00:21:35.160Z,7.43
2022-12-19T00:24:10.498Z,14.20
2022-12-19T00:26:47.833Z,11.32
2022-12-19T00:29:14.981Z,8.57
2022-12-19T00:31:43.148Z,11.82
2022-12-19T00:34:10.218Z,13.60
2022-12-19T00:36:37.030Z,10.93
2022-12-19T00:39:08.462Z,8.45
2022-12-19T00:41:41.307Z,13.48
2022-12-19T00:44:13.821Z,16.20
2022-12-19T00:46:40.785Z,11.07
2022-12-19T00:49:07.939Z,16.05
2022-12-19T00:51:37.276Z,13.68
2022-12-19T00:54:07.296Z,17.45
2022-12-19T00:56:37.930Z,13.70
2022-12-19T00:59:06.464Z,22.35
2022-12-19T01:01:37.714Z,20.02
2022-12-19T01:06:54.646Z,19.75
2022-12-19T01:09:27.941Z,23.63
2022-12-19T01:12:13.210Z,22.45
2022-12-19T01:14:40.016Z,19.45
2022-12-19T01:17:06.830Z,16.52
2022-12-19T01:19:37.753Z,19.38
2022-12-19T01:22:07.206Z,15.30
2022-12-19T01:24:34.380Z,15.90
2022-12-19T01:27:01.175Z,15.00
2022-12-19T01:29:27.938Z,12.25
2022-12-19T01:31:54.917Z,10.95
2022-12-19T01:34:21.709Z,10.95
2022-12-19T01:36:48.487Z,13.57
2022-12-19T01:39:15.270Z,11.50
2022-12-19T01:41:42.120Z,11.63
2022-12-19T01:44:09.404Z,11.20
2022-12-19T01:46:53.071Z,9.07
2022-12-19T01:49:32.198Z,12.73
2022-12-19T01:52:13.504Z,13.52
2022-12-19T01:54:50.664Z,12.30
2022-12-19T01:57:19.932Z,10.15
2022-12-19T01:59:53.349Z,12.15
2022-12-19T02:03:08.005Z,10.68
2022-12-19T02:05:39.532Z,9.43
2022-12-19T02:08:07.500Z,11.25
2022-12-19T02:10:34.641Z,8.18
2022-12-19T02:13:01.600Z,9.68
2022-12-19T02:15:33.793Z,13.13
2022-12-19T02:18:21.513Z,7.90
2022-12-19T02:21:13.841Z,7.50
2022-12-19T02:24:40.674Z,7.93
2022-12-19T02:27:22.436Z,10.15
2022-12-19T02:30:07.334Z,10.45
2022-12-19T02:33:03.022Z,10.45
2022-12-19T02:35:51.968Z,10.57
2022-12-19T02:38:52.037Z,9.63
2022-12-19T02:41:43.433Z,10.40
2022-12-19T02:44:20.163Z,10.50
2022-12-19T02:46:49.160Z,7.50
2022-12-19T02:49:21.367Z,9.10
2022-12-19T02:51:54.100Z,11.52
2022-12-19T02:54:21.719Z,10.27
2022-12-19T02:57:36.155Z,12.50
2022-12-19T03:00:16.428Z,17.73
2022-12-19T03:03:06.317Z,19.70
2022-12-19T03:05:44.382Z,13.75
2022-12-19T03:08:42.513Z,18.70
2022-12-19T03:11:13.655Z,19.65
2022-12-19T03:13:48.697Z,18.23
2022-12-19T03:18:44.107Z,19.80
2022-12-19T03:21:33.814Z,15.23
2022-12-19T03:24:01.707Z,13.98
2022-12-19T03:26:37.496Z,16.85
2022-12-19T03:29:28.522Z,11.65
2022-12-19T03:31:57.713Z,10.95
2022-12-19T03:34:44.172Z,10.43
2022-12-19T03:37:21.231Z,11.48
2022-12-19T03:40:07.782Z,13.52
2022-12-19T03:42:56.766Z,15.48
2022-12-19T03:45:34.038Z,12.32
2022-12-19T03:48:18.951Z,15.02
2022-12-19T03:50:56.276Z,14.48
2022-12-19T03:53:58.134Z,11.45
2022-12-19T03:57:10.792Z,12.18
2022-12-19T03:59:45.727Z,11.90
2022-12-19T04:02:15.855Z,15.60
2022-12-19T04:04:46.478Z,13.43
2022-12-19T04:07:15.250Z,10.77
2022-12-19T04:09:45.159Z,12.07
2022-12-19T04:12:18.380Z,16.13
2022-12-19T04:14:46.009Z,15.25
2022-12-19T04:17:48.592Z,17.42
2022-12-19T04:20:22.360Z,13.50
2022-12-19T04:23:02.375Z,18.65
2022-12-19T04:25:52.741Z,13.85
2022-12-19T04:28:27.349Z,19.63
2022-12-19T04:30:54.812Z,21.55
2022-12-19T04:33:21.649Z,22.52
2022-12-19T04:35:49.182Z,19.13
2022-12-19T04:38:16.017Z,16.65
2022-12-19T04:40:42.804Z,14.23
2022-12-19T04:43:09.809Z,13.90
2022-12-19T04:45:36.904Z,15.45
2022-12-19T04:48:04.419Z,14.25
2022-12-19T04:50:34.198Z,16.35
2022-12-19T04:53:01.705Z,15.35
2022-12-19T04:55:28.594Z,13.20
2022-12-19T04:57:55.635Z,13.63
2022-12-19T05:00:22.475Z,16.83
2022-12-19T05:02:49.512Z,16.73
2022-12-19T05:05:18.448Z,14.27
2022-12-19T05:07:45.286Z,16.92
2022-12-19T05:10:12.110Z,16.85
2022-12-19T05:12:38.920Z,15.98
2022-12-19T05:15:06.656Z,17.05
2022-12-19T05:17:33.651Z,16.73
2022-12-19T05:20:00.459Z,15.55
2022-12-19T05:22:27.417Z,16.90
2022-12-19T05:24:54.385Z,17.35
2022-12-19T05:27:21.319Z,20.73
2022-12-19T05:29:48.089Z,20.30
2022-12-19T05:32:15.133Z,15.40
2022-12-19T05:34:41.919Z,17.58
2022-12-19T05:37:08.669Z,21.73
2022-12-19T05:39:35.643Z,22.75
2022-12-19T05:42:02.472Z,22.30
2022-12-19T05:44:29.281Z,23.15
2022-12-19T05:46:56.158Z,28.67
2022-12-19T05:49:22.999Z,30.85
2022-12-19T05:51:51.585Z,28.15
2022-12-19T05:54:18.565Z,28.15
2022-12-19T05:56:45.373Z,28.85
2022-12-19T05:59:12.592Z,30.80
2022-12-19T06:01:39.733Z,28.95
2022-12-19T06:04:08.279Z,31.67
2022-12-19T06:06:35.112Z,27.23
2022-12-19T06:09:03.131Z,20.65
2022-12-19T06:11:30.004Z,23.83
2022-12-19T06:13:56.929Z,21.05
2022-12-19T06:16:24.613Z,20.35
2022-12-19T06:18:54.433Z,26.17
2022-12-19T06:21:23.623Z,17.48
2022-12-19T06:23:51.302Z,17.67
2022-12-19T06:26:20.686Z,13.60
2022-12-19T06:28:49.502Z,13.75
2022-12-19T06:31:17.324Z,14.07
2022-12-19T06:33:44.564Z,15.27
2022-12-19T06:36:23.311Z,14.75
2022-12-19T06:38:51.369Z,12.90
2022-12-19T06:41:38.135Z,8.60
2022-12-19T06:44:09.423Z,13.10
2022-12-19T06:46:37.950Z,13.35
2022-12-19T06:49:05.750Z,13.35
2022-12-19T06:51:32.972Z,15.23
2022-12-19T06:54:00.049Z,14.80
2022-12-19T06:56:27.280Z,13.80
2022-12-19T06:58:54.476Z,15.90
2022-12-19T07:01:49.739Z,11.00
2022-12-19T07:04:25.546Z,11.18
2022-12-19T07:06:52.374Z,10.23
2022-12-19T07:09:19.155Z,10.57
2022-12-19T07:11:45.972Z,12.43
2022-12-19T07:14:13.093Z,11.18
2022-12-19T07:16:41.555Z,11.27
2022-12-19T07:19:09.128Z,11.20
2022-12-19T07:21:36.936Z,10.95
2022-12-19T07:24:05.009Z,13.13
2022-12-19T07:26:32.837Z,11.48
2022-12-19T07:29:00.704Z,13.07
2022-12-19T07:31:27.780Z,11.35
2022-12-19T07:33:54.652Z,13.85
2022-12-19T07:36:21.441Z,12.90
2022-12-19T07:38:48.506Z,17.00
2022-12-19T07:41:15.307Z,9.95
2022-12-19T07:43:42.216Z,12.68
2022-12-19T07:46:09.258Z,13.63
2022-12-19T07:48:36.057Z,14.48
2022-12-19T07:51:05.519Z,13.25
2022-12-19T07:53:32.759Z,12.43
2022-12-19T07:55:59.867Z,11.45
2022-12-19T07:58:26.667Z,11.95
2022-12-19T08:01:01.033Z,15.13
2022-12-19T08:03:28.805Z,8.60
2022-12-19T08:06:06.775Z,10.13
2022-12-19T08:08:34.660Z,12.27
2022-12-19T08:11:17.634Z,14.85
2022-12-19T08:13:46.918Z,9.35
2022-12-19T08:16:15.424Z,8.60
2022-12-19T08:18:42.383Z,9.50
2022-12-19T08:21:10.809Z,8.90
2022-12-19T08:23:40.743Z,13.32
2022-12-19T08:26:12.649Z,8.85
2022-12-19T08:28:40.479Z,12.85
2022-12-19T08:31:09.963Z,11.82
2022-12-19T08:33:37.739Z,13.25
2022-12-19T08:36:12.014Z,13.77
2022-12-19T08:38:42.692Z,16.93
2022-12-19T08:41:09.917Z,13.25
2022-12-19T08:43:36.841Z,12.60
2022-12-19T08:46:04.308Z,14.93
2022-12-19T08:48:35.717Z,8.65
2022-12-19T08:51:07.031Z,18.67
2022-12-19T08:53:38.134Z,12.65
2022-12-19T08:56:19.935Z,12.23
2022-12-19T08:58:46.828Z,12.32
2022-12-19T09:01:19.284Z,12.55
2022-12-19T09:04:36.480Z,9.60
2022-12-19T09:06:34.352Z,13.52
2022-12-19T09:09:01.266Z,11.38
2022-12-19T09:11:28.221Z,11.95
2022-12-19T09:13:57.552Z,9.48
2022-12-19T09:16:27.568Z,10.43
2022-12-19T09:18:58.973Z,8.20
2022-12-19T09:21:32.100Z,11.02
2022-12-19T09:24:07.444Z,11.02
2022-12-19T09:26:38.329Z,9.23
2022-12-19T09:29:19.705Z,16.85
2022-12-19T09:31:51.457Z,9.98
2022-12-19T09:34:37.668Z,13.07
2022-12-19T09:37:16.075Z,12.18
2022-12-19T09:39:45.669Z,18.80
2022-12-19T09:42:30.721Z,15.25
2022-12-19T09:45:31.799Z,12.35
2022-12-19T09:48:00.935Z,17.25
2022-12-19T09:50:48.735Z,20.90
2022-12-19T09:53:45.193Z,20.88
2022-12-19T09:56:24.227Z,19.42
2022-12-19T09:58:58.897Z,31.67
2022-12-19T10:01:37.806Z,29.35
2022-12-19T10:04:18.499Z,21.73
2022-12-19T10:07:20.388Z,23.83
2022-12-19T10:11:59.380Z,24.20
2022-12-19T10:12:59.645Z,23.75
2022-12-19T10:15:59.973Z,16.88
2022-12-19T10:18:54.449Z,22.23
2022-12-19T10:25:22.942Z,20.98
2022-12-19T10:28:18.763Z,14.10
2022-12-19T10:34:09.273Z,15.35
2022-12-19T10:39:53.809Z,12.65
2022-12-19T10:43:07.464Z,9.85
2022-12-19T10:45:48.792Z,12.45
2022-12-19T10:48:24.295Z,15.27
2022-12-19T10:50:57.310Z,11.77
2022-12-19T10:53:29.751Z,12.38
2022-12-19T10:56:03.210Z,13.13
2022-12-19T10:58:36.973Z,9.43
2022-12-19T11:01:22.661Z,10.38
2022-12-19T11:04:10.329Z,11.85
2022-12-19T11:06:48.027Z,10.23
2022-12-19T11:09:46.037Z,8.70
2022-12-19T11:15:59.971Z,13.00
2022-12-19T11:19:50.807Z,11.48
2022-12-19T11:28:14.544Z,7.55
2022-12-19T11:29:31.405Z,8.00
2022-12-19T11:29:44.648Z,8.55
2022-12-19T11:29:54.650Z,9.57
2022-12-19T11:32:44.970Z,8.07
2022-12-19T11:35:24.454Z,10.88
2022-12-19T11:38:06.858Z,10.95
2022-12-19T11:40:48.732Z,13.68
2022-12-19T11:43:44.559Z,14.00
2022-12-19T11:46:49.564Z,8.93
2022-12-19T11:50:01.853Z,9.80
2022-12-19T11:53:19.132Z,10.05
2022-12-19T11:56:04.104Z,8.20
2022-12-19T11:58:34.637Z,11.88
2022-12-19T12:01:40.210Z,12.70
2022-12-19T12:04:38.344Z,11.65
2022-12-19T12:07:15.497Z,9.88
2022-12-19T12:15:48.036Z,11.00
2022-12-19T12:21:38.652Z,15.15
2022-12-19T12:24:49.653Z,12.95
2022-12-19T12:31:00.204Z,11.85
2022-12-19T12:31:42.134Z,9.68
2022-12-19T12:31:47.725Z,13.15
2022-12-19T12:31:57.251Z,9.23
2022-12-19T12:37:08.232Z,14.30
2022-12-19T12:38:23.949Z,12.35
2022-12-19T12:41:08.423Z,12.02
2022-12-19T12:43:50.446Z,14.30
2022-12-19T12:46:26.610Z,10.27
2022-12-19T12:49:18.132Z,10.82
2022-12-19T12:51:46.516Z,12.10
2022-12-19T12:54:15.666Z,10.88
2022-12-19T12:56:44.945Z,14.32
2022-12-19T12:59:28.866Z,11.10
2022-12-19T13:02:08.307Z,13.30
2022-12-19T13:04:44.569Z,10.57
2022-12-19T13:07:20.264Z,10.15
2022-12-19T13:10:06.588Z,9.43
2022-12-19T13:12:51.916Z,13.48
2022-12-19T13:15:27.910Z,10.25
2022-12-19T13:17:54.732Z,12.80
2022-12-19T13:20:25.976Z,10.15
2022-12-19T13:23:00.202Z,12.05
2022-12-19T13:25:27.003Z,10.57
2022-12-19T13:28:02.728Z,13.00
2022-12-19T13:30:32.464Z,9.82
2022-12-19T13:33:19.099Z,13.27
2022-12-19T13:39:47.010Z,11.45
2022-12-19T13:40:01.585Z,13.93
2022-12-19T13:42:01.620Z,9.93
2022-12-19T13:44:29.595Z,11.57
2022-12-19T13:46:56.716Z,14.05
2022-12-19T13:49:34.275Z,10.57
2022-12-19T13:52:05.145Z,13.98
2022-12-19T13:54:45.122Z,15.90
2022-12-19T13:57:27.249Z,15.57
2022-12-19T14:00:02.828Z,12.38
2022-12-19T14:02:43.639Z,12.00
2022-12-19T14:06:18.497Z,10.15
2022-12-19T14:08:25.573Z,13.05
2022-12-19T14:11:41.513Z,13.02
2022-12-19T14:14:37.836Z,15.77
2022-12-19T14:17:23.028Z,22.83
2022-12-19T14:19:53.322Z,15.82
2022-12-19T14:22:40.091Z,15.90
2022-12-19T14:28:20.605Z,14.10
2022-12-19T14:28:26.940Z,17.55
2022-12-19T14:31:04.667Z,16.95
2022-12-19T14:34:04.119Z,14.73
2022-12-19T14:36:33.668Z,12.40
2022-12-19T14:39:24.148Z,13.77
2022-12-19T14:42:10.179Z,14.25
2022-12-19T14:53:51.488Z,17.88
2022-12-19T14:54:01.798Z,19.70
2022-12-19T14:54:18.686Z,17.70
2022-12-19T14:54:27.386Z,17.75
2022-12-19T14:56:40.682Z,17.30
2022-12-19T14:59:05.463Z,19.65
2022-12-19T15:01:34.491Z,22.70
2022-12-19T15:04:52.575Z,18.17
2022-12-19T15:07:20.968Z,15.20
2022-12-19T15:11:05.551Z,16.35
2022-12-19T15:14:52.405Z,18.27
2022-12-19T15:16:24.929Z,16.10
2022-12-19T15:18:59.287Z,18.83
2022-12-19T15:21:28.031Z,13.97
2022-12-19T15:23:55.168Z,18.98
2022-12-19T15:26:48.349Z,17.70
2022-12-19T15:29:19.886Z,18.35
2022-12-19T15:31:48.848Z,19.08
2022-12-19T15:34:40.073Z,16.85
2022-12-19T15:37:13.958Z,15.88
2022-12-19T15:39:41.884Z,18.85
2022-12-19T15:42:21.564Z,16.25
2022-12-19T15:44:49.862Z,13.57
2022-12-19T15:47:29.890Z,17.95
2022-12-19T15:49:58.412Z,18.92
2022-12-19T15:52:25.791Z,15.20
2022-12-19T15:54:52.655Z,14.13
2022-12-19T15:57:36.362Z,15.18
2022-12-19T16:00:27.955Z,12.82
2022-12-19T16:03:23.593Z,14.55
2022-12-19T16:05:43.478Z,15.88
2022-12-19T16:08:19.139Z,17.83
2022-12-19T16:10:56.025Z,16.85
2022-12-19T16:13:31.602Z,19.05
2022-12-19T16:15:59.226Z,13.65
2022-12-19T16:18:26.430Z,11.73
2022-12-19T16:20:53.652Z,12.00
2022-12-19T16:23:22.486Z,13.85
2022-12-19T16:25:50.972Z,11.35
2022-12-19T16:28:29.386Z,15.02
2022-12-19T16:30:58.230Z,14.73
2022-12-19T16:33:30.788Z,12.48
2022-12-19T16:36:06.952Z,16.95
2022-12-19T16:38:35.505Z,13.70
2022-12-19T16:41:02.808Z,16.13
2022-12-19T16:43:35.481Z,15.48
2022-12-19T16:46:06.511Z,12.32
2022-12-19T16:48:36.062Z,10.23
2022-12-19T16:51:03.338Z,13.23
2022-12-19T16:53:30.181Z,12.30
2022-12-19T16:55:57.643Z,13.23
2022-12-19T16:58:27.930Z,13.82
2022-12-19T17:00:55.889Z,11.95
2022-12-19T17:03:52.322Z,14.25
2022-12-19T17:06:21.423Z,16.70
2022-12-19T17:08:49.536Z,11.40
2022-12-19T17:11:23.733Z,14.75
2022-12-19T17:14:17.242Z,13.03
2022-12-19T17:16:45.081Z,13.52
2022-12-19T17:19:21.796Z,10.85
2022-12-19T17:21:49.921Z,13.40
2022-12-19T17:24:17.642Z,13.60
2022-12-19T17:26:46.861Z,15.20
2022-12-19T17:29:14.256Z,14.57
2022-12-19T17:31:42.218Z,12.02
2022-12-19T17:34:32.498Z,14.02
2022-12-19T17:37:01.606Z,16.40
2022-12-19T17:39:31.222Z,14.15
2022-12-19T17:42:20.442Z,10.63
2022-12-19T17:44:47.465Z,12.68
2022-12-19T17:47:19.845Z,13.63
2022-12-19T17:49:48.713Z,15.05
2022-12-19T17:52:18.827Z,12.95
2022-12-19T17:54:46.103Z,13.02
2022-12-19T17:57:18.087Z,13.80
2022-12-19T17:59:46.849Z,11.88
2022-12-19T18:02:24.200Z,13.80
2022-12-19T18:04:52.226Z,16.20
2022-12-19T18:07:19.597Z,15.43
2022-12-19T18:09:46.522Z,17.13
2022-12-19T18:12:14.004Z,17.75
2022-12-19T18:14:40.861Z,13.15
2022-12-19T18:17:12.936Z,18.73
2022-12-19T18:19:40.386Z,16.58
2022-12-19T18:22:13.620Z,14.23
2022-12-19T18:24:40.888Z,19.38
2022-12-19T18:27:07.929Z,12.00
2022-12-19T18:29:34.991Z,15.57
2022-12-19T18:32:01.874Z,16.58
2022-12-19T18:34:31.322Z,14.73
2022-12-19T18:36:58.480Z,15.85
2022-12-19T18:39:29.137Z,18.23
2022-12-19T18:41:55.967Z,15.40
2022-12-19T18:44:23.385Z,16.15
2022-12-19T18:46:52.163Z,16.27
2022-12-19T18:49:19.776Z,15.15
2022-12-19T18:51:47.529Z,21.40
2022-12-19T18:54:18.488Z,19.70
2022-12-19T18:56:46.045Z,20.95
2022-12-19T18:59:12.923Z,22.13
2022-12-19T19:01:44.096Z,19.35
2022-12-19T19:04:13.336Z,19.05
2022-12-19T19:06:46.643Z,20.95
2022-12-19T19:09:18.441Z,16.60
2022-12-19T19:11:45.286Z,13.55
2022-12-19T19:14:12.218Z,17.27
2022-12-19T19:16:40.159Z,15.75
2022-12-19T19:19:11.074Z,18.60
2022-12-19T19:21:39.005Z,24.13
2022-12-19T19:24:08.564Z,16.02
2022-12-19T19:26:35.587Z,13.50
2022-12-19T19:29:04.150Z,12.38
2022-12-19T19:31:37.450Z,15.95
2022-12-19T19:34:12.978Z,16.70
2022-12-19T19:36:46.077Z,16.30
2022-12-19T19:39:14.139Z,16.23
2022-12-19T19:41:41.061Z,20.73
2022-12-19T19:44:08.057Z,22.65
2022-12-19T19:46:34.903Z,17.58
2022-12-19T19:49:02.115Z,19.75
2022-12-19T19:51:29.214Z,16.42
2022-12-19T19:53:56.547Z,24.63
2022-12-19T19:56:23.484Z,23.17
2022-12-19T19:58:50.330Z,21.75
2022-12-19T20:01:17.269Z,20.42
2022-12-19T20:03:45.232Z,17.50
2022-12-19T20:06:12.779Z,35.15
2022-12-19T20:08:40.829Z,21.70
2022-12-19T20:11:10.843Z,20.92
2022-12-19T20:13:38.499Z,24.45
2022-12-19T20:16:09.791Z,27.05
2022-12-19T20:18:38.593Z,24.17
2022-12-19T20:21:13.031Z,25.80
2022-12-19T20:26:08.639Z,28.17
2022-12-19T20:28:35.998Z,20.30
2022-12-19T20:31:03.327Z,28.48
2022-12-19T20:33:30.285Z,22.20
2022-12-19T20:35:58.746Z,27.92
2022-12-19T20:38:25.748Z,30.83
2022-12-19T20:40:56.005Z,24.55
2022-12-19T20:43:24.159Z,24.60
2022-12-19T20:45:51.840Z,25.15
2022-12-19T20:48:18.788Z,21.27
2022-12-19T20:50:46.178Z,23.92
2022-12-19T20:53:13.456Z,22.40
2022-12-19T20:55:40.245Z,22.85
2022-12-19T20:58:07.284Z,20.13
2022-12-19T21:00:34.149Z,17.85
2022-12-19T21:03:30.497Z,15.40
2022-12-19T21:05:57.024Z,14.10
2022-12-19T21:08:25.392Z,15.65
2022-12-19T21:10:52.994Z,17.20
2022-12-19T21:13:21.644Z,13.57
2022-12-19T21:16:03.296Z,14.13
2022-12-19T21:18:31.247Z,11.43
2022-12-19T21:20:58.918Z,13.48
2022-12-19T21:23:26.248Z,13.75
2022-12-19T21:25:57.373Z,12.95
2022-12-19T21:28:24.778Z,11.13
2022-12-19T21:31:07.045Z,13.27
2022-12-19T21:33:34.618Z,19.85
2022-12-19T21:36:20.621Z,12.05
2022-12-19T21:38:56.094Z,7.57
2022-12-19T21:41:23.384Z,8.60
2022-12-19T21:43:55.443Z,6.65
2022-12-19T21:46:31.239Z,7.70
2022-12-19T21:48:58.189Z,7.15
2022-12-19T21:51:31.961Z,5.65
2022-12-19T21:54:02.019Z,8.45
2022-12-19T21:56:39.230Z,5.05
2022-12-19T21:59:16.025Z,6.53
2022-12-19T22:01:44.267Z,7.65
2022-12-19T22:04:21.016Z,8.40
2022-12-19T22:06:50.485Z,3.83
2022-12-19T22:09:21.441Z,6.95
2022-12-19T22:11:49.016Z,5.45
2022-12-19T22:14:17.152Z,6.13
2022-12-19T22:16:44.784Z,7.93
2022-12-19T22:19:16.572Z,6.78
2022-12-19T22:21:45.378Z,8.85
2022-12-19T22:24:15.491Z,8.02
2022-12-19T22:26:42.946Z,8.60
2022-12-19T22:29:14.967Z,14.32
2022-12-19T22:31:42.562Z,20.25
2022-12-19T22:34:19.671Z,19.10
2022-12-19T22:36:48.005Z,15.18
2022-12-19T22:39:19.695Z,17.83
2022-12-19T22:41:47.271Z,18.98
2022-12-19T22:44:19.756Z,26.85
2022-12-19T22:46:46.870Z,22.52
2022-12-19T22:49:14.261Z,16.30
2022-12-19T22:51:41.588Z,18.38
2022-12-19T22:54:09.173Z,16.10
2022-12-19T22:56:36.897Z,17.17
2022-12-19T22:59:10.263Z,14.90
2022-12-19T23:01:40.946Z,18.23
2022-12-19T23:04:11.722Z,20.77
2022-12-19T23:06:39.214Z,20.98
2022-12-19T23:09:09.327Z,21.55
2022-12-19T23:11:39.581Z,15.60
2022-12-19T23:14:09.062Z,18.27
2022-12-19T23:16:35.971Z,20.40
2022-12-19T23:19:02.915Z,14.70
2022-12-19T23:21:30.256Z,14.23
2022-12-19T23:23:57.199Z,17.85
2022-12-19T23:26:28.811Z,21.85
2022-12-19T23:29:01.787Z,10.55
2022-12-19T23:31:30.426Z,11.20
2022-12-19T23:33:58.361Z,7.30
2022-12-19T23:37:00.596Z,4.82
2022-12-19T23:39:13.054Z,3.10
2022-12-19T23:41:40.728Z,2.30
2022-12-19T23:44:09.055Z,2.50
2022-12-19T23:46:36.657Z,2.13
2022-12-19T23:49:04.089Z,2.60
2022-12-19T23:51:30.948Z,1.55
2022-12-19T23:53:57.821Z,1.20
2022-12-19T23:56:28.775Z,1.10
2022-12-19T23:58:56.162Z,2.03
